sensor_id;sensor_type;location;lat;lon;timestamp;P1;durP1;ratioP1;P2;durP2;ratioP2
22320;SDS011;11328;53.928;18.522;2022-10-16T00:01:40;39.22;;;25.00;;
22320;SDS011;11328;53.928;18.522;2022-10-16T00:04:08;39.20;;;25.05;;
22320;SDS011;11328;53.928;18.522;2022-10-16T00:06:35;42.40;;;25.90;;
22320;SDS011;11328;53.928;18.522;2022-10-16T00:09:02;42.13;;;25.30;;
22320;SDS011;11328;53.928;18.522;2022-10-16T00:11:30;38.28;;;26.05;;
22320;SDS011;11328;53.928;18.522;2022-10-16T00:14:06;39.38;;;25.73;;
22320;SDS011;11328;53.928;18.522;2022-10-16T00:19:04;36.75;;;24.85;;
22320;SDS011;11328;53.928;18.522;2022-10-16T00:21:32;39.53;;;25.85;;
22320;SDS011;11328;53.928;18.522;2022-10-16T00:24:01;37.90;;;25.63;;
22320;SDS011;11328;53.928;18.522;2022-10-16T00:26:34;38.45;;;25.48;;
22320;SDS011;11328;53.928;18.522;2022-10-16T00:29:03;42.00;;;26.42;;
22320;SDS011;11328;53.928;18.522;2022-10-16T00:31:31;42.13;;;27.20;;
22320;SDS011;11328;53.928;18.522;2022-10-16T00:33:59;43.92;;;27.88;;
22320;SDS011;11328;53.928;18.522;2022-10-16T00:36:26;41.08;;;27.45;;
22320;SDS011;11328;53.928;18.522;2022-10-16T00:38:54;46.28;;;28.33;;
22320;SDS011;11328;53.928;18.522;2022-10-16T00:41:30;44.63;;;28.10;;
22320;SDS011;11328;53.928;18.522;2022-10-16T00:43:59;46.67;;;29.92;;
22320;SDS011;11328;53.928;18.522;2022-10-16T00:46:48;45.55;;;29.00;;
22320;SDS011;11328;53.928;18.522;2022-10-16T00:49:18;42.35;;;28.25;;
22320;SDS011;11328;53.928;18.522;2022-10-16T00:51:47;42.25;;;28.08;;
22320;SDS011;11328;53.928;18.522;2022-10-16T00:54:29;50.10;;;28.85;;
22320;SDS011;11328;53.928;18.522;2022-10-16T00:57:00;46.72;;;28.90;;
22320;SDS011;11328;53.928;18.522;2022-10-16T01:02:07;45.08;;;29.25;;
22320;SDS011;11328;53.928;18.522;2022-10-16T01:04:42;43.67;;;28.35;;
22320;SDS011;11328;53.928;18.522;2022-10-16T01:07:17;39.15;;;27.10;;
22320;SDS011;11328;53.928;18.522;2022-10-16T01:18:16;41.08;;;27.65;;
22320;SDS011;11328;53.928;18.522;2022-10-16T01:20:54;41.85;;;27.08;;
22320;SDS011;11328;53.928;18.522;2022-10-16T01:23:45;42.35;;;26.60;;
22320;SDS011;11328;53.928;18.522;2022-10-16T01:29:39;37.35;;;24.75;;
22320;SDS011;11328;53.928;18.522;2022-10-16T01:35:32;32.28;;;23.13;;
22320;SDS011;11328;53.928;18.522;2022-10-16T01:41:25;34.20;;;23.67;;
22320;SDS011;11328;53.928;18.522;2022-10-16T01:44:03;32.38;;;22.88;;
22320;SDS011;11328;53.928;18.522;2022-10-16T01:46:47;31.60;;;22.55;;
22320;SDS011;11328;53.928;18.522;2022-10-16T01:49:18;36.28;;;22.98;;
22320;SDS011;11328;53.928;18.522;2022-10-16T01:51:52;30.70;;;23.13;;
22320;SDS011;11328;53.928;18.522;2022-10-16T01:54:25;33.67;;;23.63;;
22320;SDS011;11328;53.928;18.522;2022-10-16T01:56:58;33.95;;;23.60;;
22320;SDS011;11328;53.928;18.522;2022-10-16T01:59:26;35.53;;;23.52;;
22320;SDS011;11328;53.928;18.522;2022-10-16T02:02:01;31.48;;;22.67;;
22320;SDS011;11328;53.928;18.522;2022-10-16T02:04:49;29.98;;;22.48;;
22320;SDS011;11328;53.928;18.522;2022-10-16T02:07:41;34.38;;;22.25;;
22320;SDS011;11328;53.928;18.522;2022-10-16T02:10:09;30.73;;;22.48;;
22320;SDS011;11328;53.928;18.522;2022-10-16T02:12:37;32.80;;;21.85;;
22320;SDS011;11328;53.928;18.522;2022-10-16T02:15:09;28.35;;;21.25;;
22320;SDS011;11328;53.928;18.522;2022-10-16T02:17:36;28.80;;;21.52;;
22320;SDS011;11328;53.928;18.522;2022-10-16T02:20:03;29.42;;;21.65;;
22320;SDS011;11328;53.928;18.522;2022-10-16T02:22:32;29.50;;;21.20;;
22320;SDS011;11328;53.928;18.522;2022-10-16T02:25:10;30.08;;;22.17;;
22320;SDS011;11328;53.928;18.522;2022-10-16T02:30:24;31.25;;;23.75;;
22320;SDS011;11328;53.928;18.522;2022-10-16T02:32:59;33.22;;;22.42;;
22320;SDS011;11328;53.928;18.522;2022-10-16T02:35:29;31.20;;;23.58;;
22320;SDS011;11328;53.928;18.522;2022-10-16T02:37:58;32.88;;;23.65;;
22320;SDS011;11328;53.928;18.522;2022-10-16T02:40:25;34.05;;;24.52;;
22320;SDS011;11328;53.928;18.522;2022-10-16T02:42:54;34.03;;;23.83;;
22320;SDS011;11328;53.928;18.522;2022-10-16T02:45:22;34.80;;;24.85;;
22320;SDS011;11328;53.928;18.522;2022-10-16T02:47:50;38.38;;;24.70;;
22320;SDS011;11328;53.928;18.522;2022-10-16T02:50:17;35.45;;;24.95;;
22320;SDS011;11328;53.928;18.522;2022-10-16T02:52:44;36.60;;;25.17;;
22320;SDS011;11328;53.928;18.522;2022-10-16T02:55:11;40.28;;;25.40;;
22320;SDS011;11328;53.928;18.522;2022-10-16T02:57:38;35.53;;;24.85;;
22320;SDS011;11328;53.928;18.522;2022-10-16T03:00:07;37.42;;;26.27;;
22320;SDS011;11328;53.928;18.522;2022-10-16T03:02:38;39.90;;;27.13;;
22320;SDS011;11328;53.928;18.522;2022-10-16T03:05:05;39.67;;;27.48;;
22320;SDS011;11328;53.928;18.522;2022-10-16T03:07:33;40.33;;;28.58;;
22320;SDS011;11328;53.928;18.522;2022-10-16T03:10:00;40.72;;;29.02;;
22320;SDS011;11328;53.928;18.522;2022-10-16T03:12:28;44.40;;;31.00;;
22320;SDS011;11328;53.928;18.522;2022-10-16T03:14:55;42.42;;;30.23;;
22320;SDS011;11328;53.928;18.522;2022-10-16T03:17:23;42.92;;;30.23;;
22320;SDS011;11328;53.928;18.522;2022-10-16T03:19:51;43.97;;;30.58;;
22320;SDS011;11328;53.928;18.522;2022-10-16T03:22:18;47.20;;;31.05;;
22320;SDS011;11328;53.928;18.522;2022-10-16T03:24:45;46.47;;;31.80;;
22320;SDS011;11328;53.928;18.522;2022-10-16T03:27:12;47.78;;;32.58;;
22320;SDS011;11328;53.928;18.522;2022-10-16T03:29:39;46.38;;;33.08;;
22320;SDS011;11328;53.928;18.522;2022-10-16T03:32:06;49.53;;;34.30;;
22320;SDS011;11328;53.928;18.522;2022-10-16T03:34:33;52.15;;;34.17;;
22320;SDS011;11328;53.928;18.522;2022-10-16T03:37:00;51.80;;;36.03;;
22320;SDS011;11328;53.928;18.522;2022-10-16T03:39:27;51.22;;;35.95;;
22320;SDS011;11328;53.928;18.522;2022-10-16T03:41:54;57.10;;;37.58;;
22320;SDS011;11328;53.928;18.522;2022-10-16T03:44:21;51.03;;;37.35;;
22320;SDS011;11328;53.928;18.522;2022-10-16T03:46:48;53.67;;;36.88;;
22320;SDS011;11328;53.928;18.522;2022-10-16T03:49:15;52.55;;;36.83;;
22320;SDS011;11328;53.928;18.522;2022-10-16T03:51:42;52.03;;;37.08;;
22320;SDS011;11328;53.928;18.522;2022-10-16T03:54:09;52.25;;;37.25;;
22320;SDS011;11328;53.928;18.522;2022-10-16T03:56:37;57.65;;;38.10;;
22320;SDS011;11328;53.928;18.522;2022-10-16T03:59:04;52.15;;;36.33;;
22320;SDS011;11328;53.928;18.522;2022-10-16T04:01:31;51.45;;;36.40;;
22320;SDS011;11328;53.928;18.522;2022-10-16T04:17:03;52.60;;;39.53;;
22320;SDS011;11328;53.928;18.522;2022-10-16T04:19:30;49.15;;;37.13;;
22320;SDS011;11328;53.928;18.522;2022-10-16T04:21:57;53.83;;;37.70;;
22320;SDS011;11328;53.928;18.522;2022-10-16T04:24:24;50.10;;;37.63;;
22320;SDS011;11328;53.928;18.522;2022-10-16T04:26:51;50.30;;;36.92;;
22320;SDS011;11328;53.928;18.522;2022-10-16T04:29:18;53.92;;;38.08;;
22320;SDS011;11328;53.928;18.522;2022-10-16T04:31:45;52.58;;;36.95;;
22320;SDS011;11328;53.928;18.522;2022-10-16T04:34:12;53.70;;;37.65;;
22320;SDS011;11328;53.928;18.522;2022-10-16T04:36:39;55.70;;;37.70;;
22320;SDS011;11328;53.928;18.522;2022-10-16T04:39:06;54.05;;;37.60;;
22320;SDS011;11328;53.928;18.522;2022-10-16T04:41:33;51.63;;;37.20;;
22320;SDS011;11328;53.928;18.522;2022-10-16T04:44:00;54.63;;;37.50;;
22320;SDS011;11328;53.928;18.522;2022-10-16T04:46:27;53.78;;;37.08;;
22320;SDS011;11328;53.928;18.522;2022-10-16T04:48:54;52.30;;;37.08;;
22320;SDS011;11328;53.928;18.522;2022-10-16T04:51:21;53.80;;;37.60;;
22320;SDS011;11328;53.928;18.522;2022-10-16T04:53:49;51.28;;;37.38;;
22320;SDS011;11328;53.928;18.522;2022-10-16T04:56:16;52.33;;;37.50;;
22320;SDS011;11328;53.928;18.522;2022-10-16T04:58:43;55.60;;;37.50;;
22320;SDS011;11328;53.928;18.522;2022-10-16T05:01:10;58.47;;;39.50;;
22320;SDS011;11328;53.928;18.522;2022-10-16T05:03:37;56.85;;;38.38;;
22320;SDS011;11328;53.928;18.522;2022-10-16T05:06:07;53.40;;;37.22;;
22320;SDS011;11328;53.928;18.522;2022-10-16T05:08:34;52.80;;;35.83;;
22320;SDS011;11328;53.928;18.522;2022-10-16T05:11:01;50.30;;;35.10;;
22320;SDS011;11328;53.928;18.522;2022-10-16T05:13:28;53.83;;;37.10;;
22320;SDS011;11328;53.928;18.522;2022-10-16T05:15:55;52.53;;;35.85;;
22320;SDS011;11328;53.928;18.522;2022-10-16T05:18:23;50.60;;;34.97;;
22320;SDS011;11328;53.928;18.522;2022-10-16T05:20:50;50.47;;;35.28;;
22320;SDS011;11328;53.928;18.522;2022-10-16T05:23:17;48.80;;;34.97;;
22320;SDS011;11328;53.928;18.522;2022-10-16T05:25:51;52.08;;;35.15;;
22320;SDS011;11328;53.928;18.522;2022-10-16T05:28:20;51.28;;;35.45;;
22320;SDS011;11328;53.928;18.522;2022-10-16T05:30:47;48.00;;;34.20;;
22320;SDS011;11328;53.928;18.522;2022-10-16T05:33:14;46.92;;;34.22;;
22320;SDS011;11328;53.928;18.522;2022-10-16T05:35:41;48.80;;;34.90;;
22320;SDS011;11328;53.928;18.522;2022-10-16T05:38:08;47.70;;;35.05;;
22320;SDS011;11328;53.928;18.522;2022-10-16T05:40:35;46.67;;;34.60;;
22320;SDS011;11328;53.928;18.522;2022-10-16T05:43:02;47.72;;;34.00;;
22320;SDS011;11328;53.928;18.522;2022-10-16T05:45:29;48.08;;;33.42;;
22320;SDS011;11328;53.928;18.522;2022-10-16T05:47:56;47.60;;;33.65;;
22320;SDS011;11328;53.928;18.522;2022-10-16T05:50:23;46.00;;;33.15;;
22320;SDS011;11328;53.928;18.522;2022-10-16T05:52:50;44.28;;;32.58;;
22320;SDS011;11328;53.928;18.522;2022-10-16T05:55:17;45.60;;;32.17;;
22320;SDS011;11328;53.928;18.522;2022-10-16T05:57:44;47.67;;;33.42;;
22320;SDS011;11328;53.928;18.522;2022-10-16T06:00:11;42.85;;;32.63;;
22320;SDS011;11328;53.928;18.522;2022-10-16T06:02:38;42.47;;;32.10;;
22320;SDS011;11328;53.928;18.522;2022-10-16T06:05:05;46.08;;;33.00;;
22320;SDS011;11328;53.928;18.522;2022-10-16T06:07:35;43.45;;;31.92;;
22320;SDS011;11328;53.928;18.522;2022-10-16T06:10:03;46.03;;;32.30;;
22320;SDS011;11328;53.928;18.522;2022-10-16T06:12:31;45.03;;;32.58;;
22320;SDS011;11328;53.928;18.522;2022-10-16T06:14:58;43.90;;;30.85;;
22320;SDS011;11328;53.928;18.522;2022-10-16T06:17:25;45.25;;;31.67;;
22320;SDS011;11328;53.928;18.522;2022-10-16T06:19:52;45.10;;;31.77;;
22320;SDS011;11328;53.928;18.522;2022-10-16T06:22:19;44.67;;;32.25;;
22320;SDS011;11328;53.928;18.522;2022-10-16T06:24:46;46.45;;;31.88;;
22320;SDS011;11328;53.928;18.522;2022-10-16T06:27:13;41.50;;;30.52;;
22320;SDS011;11328;53.928;18.522;2022-10-16T06:29:40;44.38;;;32.20;;
22320;SDS011;11328;53.928;18.522;2022-10-16T06:32:09;53.58;;;32.35;;
22320;SDS011;11328;53.928;18.522;2022-10-16T06:34:36;45.03;;;32.20;;
22320;SDS011;11328;53.928;18.522;2022-10-16T06:37:08;43.75;;;31.63;;
22320;SDS011;11328;53.928;18.522;2022-10-16T06:39:35;41.33;;;29.88;;
22320;SDS011;11328;53.928;18.522;2022-10-16T06:42:02;42.72;;;31.10;;
22320;SDS011;11328;53.928;18.522;2022-10-16T06:44:29;42.03;;;30.33;;
22320;SDS011;11328;53.928;18.522;2022-10-16T06:46:56;39.10;;;29.60;;
22320;SDS011;11328;53.928;18.522;2022-10-16T06:49:22;41.88;;;30.10;;
22320;SDS011;11328;53.928;18.522;2022-10-16T06:51:49;40.22;;;29.25;;
22320;SDS011;11328;53.928;18.522;2022-10-16T06:54:16;40.22;;;29.38;;
22320;SDS011;11328;53.928;18.522;2022-10-16T06:56:46;44.13;;;29.92;;
22320;SDS011;11328;53.928;18.522;2022-10-16T06:59:13;40.42;;;29.25;;
22320;SDS011;11328;53.928;18.522;2022-10-16T07:01:40;41.22;;;29.45;;
22320;SDS011;11328;53.928;18.522;2022-10-16T07:04:07;38.97;;;28.45;;
22320;SDS011;11328;53.928;18.522;2022-10-16T07:06:34;38.38;;;28.70;;
22320;SDS011;11328;53.928;18.522;2022-10-16T07:09:02;40.55;;;28.80;;
22320;SDS011;11328;53.928;18.522;2022-10-16T07:11:33;38.08;;;27.05;;
22320;SDS011;11328;53.928;18.522;2022-10-16T07:14:00;37.33;;;27.17;;
22320;SDS011;11328;53.928;18.522;2022-10-16T07:16:28;34.17;;;26.38;;
22320;SDS011;11328;53.928;18.522;2022-10-16T07:18:59;38.88;;;27.25;;
22320;SDS011;11328;53.928;18.522;2022-10-16T07:21:29;36.92;;;26.67;;
22320;SDS011;11328;53.928;18.522;2022-10-16T07:24:03;36.42;;;27.42;;
22320;SDS011;11328;53.928;18.522;2022-10-16T07:26:34;34.80;;;26.85;;
22320;SDS011;11328;53.928;18.522;2022-10-16T07:29:03;36.05;;;26.33;;
22320;SDS011;11328;53.928;18.522;2022-10-16T07:31:30;37.22;;;27.73;;
22320;SDS011;11328;53.928;18.522;2022-10-16T07:33:58;36.70;;;26.60;;
22320;SDS011;11328;53.928;18.522;2022-10-16T07:36:26;36.40;;;26.95;;
22320;SDS011;11328;53.928;18.522;2022-10-16T07:38:54;37.75;;;28.33;;
22320;SDS011;11328;53.928;18.522;2022-10-16T07:41:25;36.22;;;28.40;;
22320;SDS011;11328;53.928;18.522;2022-10-16T07:43:53;35.60;;;27.63;;
22320;SDS011;11328;53.928;18.522;2022-10-16T07:46:26;47.20;;;34.17;;
22320;SDS011;11328;53.928;18.522;2022-10-16T07:48:54;52.90;;;37.83;;
22320;SDS011;11328;53.928;18.522;2022-10-16T07:51:22;37.28;;;27.85;;
22320;SDS011;11328;53.928;18.522;2022-10-16T07:53:50;46.38;;;37.17;;
22320;SDS011;11328;53.928;18.522;2022-10-16T07:56:18;37.15;;;28.75;;
22320;SDS011;11328;53.928;18.522;2022-10-16T07:58:47;41.78;;;31.40;;
22320;SDS011;11328;53.928;18.522;2022-10-16T08:01:16;40.00;;;27.75;;
22320;SDS011;11328;53.928;18.522;2022-10-16T08:03:45;37.15;;;28.20;;
22320;SDS011;11328;53.928;18.522;2022-10-16T08:18:33;40.72;;;30.48;;
22320;SDS011;11328;53.928;18.522;2022-10-16T08:21:02;43.25;;;30.30;;
22320;SDS011;11328;53.928;18.522;2022-10-16T08:23:31;42.28;;;30.88;;
22320;SDS011;11328;53.928;18.522;2022-10-16T08:26:05;42.97;;;29.95;;
22320;SDS011;11328;53.928;18.522;2022-10-16T08:28:35;39.83;;;29.98;;
22320;SDS011;11328;53.928;18.522;2022-10-16T08:31:07;43.35;;;30.85;;
22320;SDS011;11328;53.928;18.522;2022-10-16T08:33:45;48.15;;;32.17;;
22320;SDS011;11328;53.928;18.522;2022-10-16T08:36:13;39.13;;;29.65;;
22320;SDS011;11328;53.928;18.522;2022-10-16T08:38:41;38.40;;;29.45;;
22320;SDS011;11328;53.928;18.522;2022-10-16T08:41:21;42.35;;;31.25;;
22320;SDS011;11328;53.928;18.522;2022-10-16T08:50:09;38.63;;;28.55;;
22320;SDS011;11328;53.928;18.522;2022-10-16T08:52:51;41.63;;;30.85;;
22320;SDS011;11328;53.928;18.522;2022-10-16T08:55:29;44.70;;;32.72;;
22320;SDS011;11328;53.928;18.522;2022-10-16T08:58:18;71.95;;;54.63;;
22320;SDS011;11328;53.928;18.522;2022-10-16T09:00:59;55.75;;;43.95;;
22320;SDS011;11328;53.928;18.522;2022-10-16T09:03:51;42.20;;;32.35;;
22320;SDS011;11328;53.928;18.522;2022-10-16T09:07:13;59.65;;;38.92;;
22320;SDS011;11328;53.928;18.522;2022-10-16T09:10:04;40.35;;;29.60;;
22320;SDS011;11328;53.928;18.522;2022-10-16T09:21:41;58.28;;;35.53;;
22320;SDS011;11328;53.928;18.522;2022-10-16T09:24:18;34.40;;;27.05;;
22320;SDS011;11328;53.928;18.522;2022-10-16T09:26:54;35.65;;;27.17;;
22320;SDS011;11328;53.928;18.522;2022-10-16T09:29:26;35.25;;;26.42;;
22320;SDS011;11328;53.928;18.522;2022-10-16T09:31:54;33.97;;;25.98;;
22320;SDS011;11328;53.928;18.522;2022-10-16T09:34:46;36.30;;;27.65;;
22320;SDS011;11328;53.928;18.522;2022-10-16T09:37:35;31.30;;;25.38;;
22320;SDS011;11328;53.928;18.522;2022-10-16T09:40:03;35.80;;;25.25;;
22320;SDS011;11328;53.928;18.522;2022-10-16T09:42:34;37.50;;;26.80;;
22320;SDS011;11328;53.928;18.522;2022-10-16T09:45:04;30.85;;;25.02;;
22320;SDS011;11328;53.928;18.522;2022-10-16T09:47:32;30.08;;;24.70;;
22320;SDS011;11328;53.928;18.522;2022-10-16T09:50:24;39.20;;;26.95;;
22320;SDS011;11328;53.928;18.522;2022-10-16T09:53:13;33.47;;;26.05;;
22320;SDS011;11328;53.928;18.522;2022-10-16T09:55:50;29.67;;;23.75;;
22320;SDS011;11328;53.928;18.522;2022-10-16T09:58:22;34.78;;;25.25;;
22320;SDS011;11328;53.928;18.522;2022-10-16T10:00:51;36.35;;;27.08;;
22320;SDS011;11328;53.928;18.522;2022-10-16T10:06:21;28.02;;;22.30;;
22320;SDS011;11328;53.928;18.522;2022-10-16T10:08:59;29.08;;;22.17;;
22320;SDS011;11328;53.928;18.522;2022-10-16T10:17:01;29.23;;;21.40;;
22320;SDS011;11328;53.928;18.522;2022-10-16T10:19:42;26.50;;;20.52;;
22320;SDS011;11328;53.928;18.522;2022-10-16T10:22:18;22.70;;;18.05;;
22320;SDS011;11328;53.928;18.522;2022-10-16T10:33:58;30.75;;;20.35;;
22320;SDS011;11328;53.928;18.522;2022-10-16T10:36:52;28.50;;;21.20;;
22320;SDS011;11328;53.928;18.522;2022-10-16T10:39:43;23.67;;;18.15;;
22320;SDS011;11328;53.928;18.522;2022-10-16T10:42:48;23.92;;;18.35;;
22320;SDS011;11328;53.928;18.522;2022-10-16T10:45:28;32.28;;;22.58;;
22320;SDS011;11328;53.928;18.522;2022-10-16T10:50:49;20.25;;;16.95;;
22320;SDS011;11328;53.928;18.522;2022-10-16T10:56:45;21.90;;;17.75;;
22320;SDS011;11328;53.928;18.522;2022-10-16T11:02:31;21.30;;;17.00;;
22320;SDS011;11328;53.928;18.522;2022-10-16T11:08:26;19.25;;;16.65;;
22320;SDS011;11328;53.928;18.522;2022-10-16T11:11:11;21.92;;;18.20;;
22320;SDS011;11328;53.928;18.522;2022-10-16T11:13:57;20.70;;;17.85;;
22320;SDS011;11328;53.928;18.522;2022-10-16T11:16:30;22.27;;;17.45;;
22320;SDS011;11328;53.928;18.522;2022-10-16T11:19:11;21.80;;;18.20;;
22320;SDS011;11328;53.928;18.522;2022-10-16T11:21:56;25.23;;;18.90;;
22320;SDS011;11328;53.928;18.522;2022-10-16T11:24:43;23.02;;;18.67;;
22320;SDS011;11328;53.928;18.522;2022-10-16T11:30:26;17.98;;;15.48;;
22320;SDS011;11328;53.928;18.522;2022-10-16T11:35:47;17.45;;;14.73;;
22320;SDS011;11328;53.928;18.522;2022-10-16T11:38:34;18.25;;;13.63;;
22320;SDS011;11328;53.928;18.522;2022-10-16T11:41:49;14.52;;;11.82;;
22320;SDS011;11328;53.928;18.522;2022-10-16T11:50:27;21.98;;;14.18;;
22320;SDS011;11328;53.928;18.522;2022-10-16T11:55:56;13.45;;;11.38;;
22320;SDS011;11328;53.928;18.522;2022-10-16T11:58:30;13.88;;;11.32;;
22320;SDS011;11328;53.928;18.522;2022-10-16T12:01:21;18.67;;;13.57;;
22320;SDS011;11328;53.928;18.522;2022-10-16T12:07:04;16.25;;;13.25;;
22320;SDS011;11328;53.928;18.522;2022-10-16T12:09:37;16.33;;;13.32;;
22320;SDS011;11328;53.928;18.522;2022-10-16T12:17:55;14.82;;;12.18;;
22320;SDS011;11328;53.928;18.522;2022-10-16T12:20:27;17.23;;;13.45;;
22320;SDS011;11328;53.928;18.522;2022-10-16T12:23:02;16.65;;;13.75;;
22320;SDS011;11328;53.928;18.522;2022-10-16T12:28:20;16.75;;;13.48;;
22320;SDS011;11328;53.928;18.522;2022-10-16T12:30:56;17.02;;;12.93;;
22320;SDS011;11328;53.928;18.522;2022-10-16T12:33:25;15.35;;;13.00;;
22320;SDS011;11328;53.928;18.522;2022-10-16T12:35:57;17.60;;;13.10;;
22320;SDS011;11328;53.928;18.522;2022-10-16T12:38:30;15.80;;;12.82;;
22320;SDS011;11328;53.928;18.522;2022-10-16T12:41:11;14.75;;;12.35;;
22320;SDS011;11328;53.928;18.522;2022-10-16T12:43:41;15.25;;;12.25;;
22320;SDS011;11328;53.928;18.522;2022-10-16T12:48:42;16.48;;;12.48;;
22320;SDS011;11328;53.928;18.522;2022-10-16T13:22:47;13.77;;;10.02;;
22320;SDS011;11328;53.928;18.522;2022-10-16T13:28:36;14.98;;;11.05;;
22320;SDS011;11328;53.928;18.522;2022-10-16T13:31:05;13.07;;;9.55;;
22320;SDS011;11328;53.928;18.522;2022-10-16T13:33:50;15.90;;;10.65;;
22320;SDS011;11328;53.928;18.522;2022-10-16T13:36:22;14.13;;;10.63;;
22320;SDS011;11328;53.928;18.522;2022-10-16T13:44:54;16.48;;;10.30;;
22320;SDS011;11328;53.928;18.522;2022-10-16T13:47:23;12.63;;;10.20;;
22320;SDS011;11328;53.928;18.522;2022-10-16T13:50:06;14.75;;;10.10;;
22320;SDS011;11328;53.928;18.522;2022-10-16T13:52:43;12.15;;;10.00;;
22320;SDS011;11328;53.928;18.522;2022-10-16T13:57:41;12.38;;;9.10;;
22320;SDS011;11328;53.928;18.522;2022-10-16T14:00:24;13.10;;;8.75;;
22320;SDS011;11328;53.928;18.522;2022-10-16T14:03:07;12.38;;;9.73;;
22320;SDS011;11328;53.928;18.522;2022-10-16T14:05:47;13.20;;;7.88;;
22320;SDS011;11328;53.928;18.522;2022-10-16T14:08:19;12.77;;;9.13;;
22320;SDS011;11328;53.928;18.522;2022-10-16T14:10:49;14.93;;;9.20;;
22320;SDS011;11328;53.928;18.522;2022-10-16T14:13:34;13.45;;;7.93;;
22320;SDS011;11328;53.928;18.522;2022-10-16T14:16:11;11.90;;;7.80;;
22320;SDS011;11328;53.928;18.522;2022-10-16T14:18:46;10.80;;;7.00;;
22320;SDS011;11328;53.928;18.522;2022-10-16T14:21:26;14.07;;;7.68;;
22320;SDS011;11328;53.928;18.522;2022-10-16T14:23:54;10.48;;;8.15;;
22320;SDS011;11328;53.928;18.522;2022-10-16T14:26:22;11.10;;;7.15;;
22320;SDS011;11328;53.928;18.522;2022-10-16T14:29:13;11.75;;;8.00;;
22320;SDS011;11328;53.928;18.522;2022-10-16T14:34:53;15.82;;;10.27;;
22320;SDS011;11328;53.928;18.522;2022-10-16T14:39:55;14.13;;;9.45;;
22320;SDS011;11328;53.928;18.522;2022-10-16T14:42:23;15.13;;;8.25;;
22320;SDS011;11328;53.928;18.522;2022-10-16T14:44:52;11.95;;;8.10;;
22320;SDS011;11328;53.928;18.522;2022-10-16T14:47:22;14.40;;;9.15;;
22320;SDS011;11328;53.928;18.522;2022-10-16T14:49:53;11.70;;;8.90;;
22320;SDS011;11328;53.928;18.522;2022-10-16T14:52:23;10.18;;;7.47;;
22320;SDS011;11328;53.928;18.522;2022-10-16T14:54:51;11.90;;;8.50;;
22320;SDS011;11328;53.928;18.522;2022-10-16T14:57:22;13.75;;;8.52;;
22320;SDS011;11328;53.928;18.522;2022-10-16T14:59:54;11.68;;;7.85;;
22320;SDS011;11328;53.928;18.522;2022-10-16T15:02:27;11.13;;;8.00;;
22320;SDS011;11328;53.928;18.522;2022-10-16T15:04:57;11.50;;;8.40;;
22320;SDS011;11328;53.928;18.522;2022-10-16T15:07:53;12.35;;;8.15;;
22320;SDS011;11328;53.928;18.522;2022-10-16T15:10:21;11.32;;;8.77;;
22320;SDS011;11328;53.928;18.522;2022-10-16T15:12:52;10.43;;;8.13;;
22320;SDS011;11328;53.928;18.522;2022-10-16T15:15:23;12.02;;;7.70;;
22320;SDS011;11328;53.928;18.522;2022-10-16T15:18:02;10.38;;;8.00;;
22320;SDS011;11328;53.928;18.522;2022-10-16T15:20:31;12.00;;;8.00;;
22320;SDS011;11328;53.928;18.522;2022-10-16T15:23:03;10.80;;;9.10;;
22320;SDS011;11328;53.928;18.522;2022-10-16T15:25:42;11.15;;;8.77;;
22320;SDS011;11328;53.928;18.522;2022-10-16T15:28:11;15.63;;;11.55;;
22320;SDS011;11328;53.928;18.522;2022-10-16T15:30:40;18.95;;;9.85;;
22320;SDS011;11328;53.928;18.522;2022-10-16T15:33:14;11.80;;;9.57;;
22320;SDS011;11328;53.928;18.522;2022-10-16T15:35:47;15.38;;;9.52;;
22320;SDS011;11328;53.928;18.522;2022-10-16T15:38:16;12.40;;;9.50;;
22320;SDS011;11328;53.928;18.522;2022-10-16T15:40:46;12.18;;;9.80;;
22320;SDS011;11328;53.928;18.522;2022-10-16T15:43:14;12.88;;;9.68;;
22320;SDS011;11328;53.928;18.522;2022-10-16T15:45:42;12.60;;;10.23;;
22320;SDS011;11328;53.928;18.522;2022-10-16T15:48:12;13.07;;;10.45;;
22320;SDS011;11328;53.928;18.522;2022-10-16T15:50:39;22.23;;;16.83;;
22320;SDS011;11328;53.928;18.522;2022-10-16T15:53:13;30.52;;;22.35;;
22320;SDS011;11328;53.928;18.522;2022-10-16T15:55:40;30.90;;;21.92;;
22320;SDS011;11328;53.928;18.522;2022-10-16T15:58:07;163.77;;;115.55;;
22320;SDS011;11328;53.928;18.522;2022-10-16T16:00:34;114.47;;;85.93;;
22320;SDS011;11328;53.928;18.522;2022-10-16T16:03:01;196.23;;;128.15;;
22320;SDS011;11328;53.928;18.522;2022-10-16T16:05:28;246.70;;;168.82;;
22320;SDS011;11328;53.928;18.522;2022-10-16T16:07:56;280.60;;;200.30;;
22320;SDS011;11328;53.928;18.522;2022-10-16T16:10:23;393.00;;;294.50;;
22320;SDS011;11328;53.928;18.522;2022-10-16T16:12:50;273.10;;;209.00;;
22320;SDS011;11328;53.928;18.522;2022-10-16T16:15:19;139.40;;;106.47;;
22320;SDS011;11328;53.928;18.522;2022-10-16T16:17:48;93.78;;;65.20;;
22320;SDS011;11328;53.928;18.522;2022-10-16T16:20:15;79.95;;;54.72;;
22320;SDS011;11328;53.928;18.522;2022-10-16T16:22:43;79.28;;;50.70;;
22320;SDS011;11328;53.928;18.522;2022-10-16T16:25:10;68.00;;;42.15;;
22320;SDS011;11328;53.928;18.522;2022-10-16T16:27:37;53.67;;;33.83;;
22320;SDS011;11328;53.928;18.522;2022-10-16T16:30:05;81.90;;;46.13;;
22320;SDS011;11328;53.928;18.522;2022-10-16T16:32:34;91.40;;;50.80;;
22320;SDS011;11328;53.928;18.522;2022-10-16T16:35:02;77.38;;;46.92;;
22320;SDS011;11328;53.928;18.522;2022-10-16T16:37:30;83.72;;;50.20;;
22320;SDS011;11328;53.928;18.522;2022-10-16T16:39:57;85.65;;;49.00;;
22320;SDS011;11328;53.928;18.522;2022-10-16T16:42:25;112.07;;;56.10;;
22320;SDS011;11328;53.928;18.522;2022-10-16T16:44:53;131.90;;;62.08;;
22320;SDS011;11328;53.928;18.522;2022-10-16T16:47:20;198.40;;;81.93;;
22320;SDS011;11328;53.928;18.522;2022-10-16T16:49:48;104.43;;;50.60;;
22320;SDS011;11328;53.928;18.522;2022-10-16T16:52:15;71.32;;;37.72;;
22320;SDS011;11328;53.928;18.522;2022-10-16T16:54:43;157.52;;;61.80;;
22320;SDS011;11328;53.928;18.522;2022-10-16T16:57:18;246.38;;;90.25;;
22320;SDS011;11328;53.928;18.522;2022-10-16T16:59:46;229.13;;;83.65;;
22320;SDS011;11328;53.928;18.522;2022-10-16T17:02:16;235.32;;;79.32;;
22320;SDS011;11328;53.928;18.522;2022-10-16T17:04:43;221.13;;;79.53;;
22320;SDS011;11328;53.928;18.522;2022-10-16T17:07:10;162.70;;;66.82;;
22320;SDS011;11328;53.928;18.522;2022-10-16T17:09:37;106.10;;;52.17;;
22320;SDS011;11328;53.928;18.522;2022-10-16T17:12:04;71.63;;;39.40;;
22320;SDS011;11328;53.928;18.522;2022-10-16T17:14:31;33.70;;;23.80;;
22320;SDS011;11328;53.928;18.522;2022-10-16T17:16:58;24.20;;;19.30;;
22320;SDS011;11328;53.928;18.522;2022-10-16T17:19:25;21.55;;;19.10;;
22320;SDS011;11328;53.928;18.522;2022-10-16T17:21:52;20.88;;;18.40;;
22320;SDS011;11328;53.928;18.522;2022-10-16T17:24:19;19.48;;;17.08;;
22320;SDS011;11328;53.928;18.522;2022-10-16T17:26:46;19.83;;;16.67;;
22320;SDS011;11328;53.928;18.522;2022-10-16T17:29:15;19.05;;;17.05;;